sensor_id;sensor_type;location;lat;lon;timestamp;pressure;altitude;pressure_sealevel;temperature;humidity
6565;BME280;3316;44.118;27.258;2024-03-23T00:54:38;101261.63;;;7.07;100.00
6565;BME280;3316;44.118;27.258;2024-03-23T00:57:04;101254.66;;;7.06;100.00
6565;BME280;3316;44.118;27.258;2024-03-23T00:59:29;101253.59;;;6.96;100.00
6565;BME280;3316;44.118;27.258;2024-03-23T01:01:56;101256.19;;;6.93;100.00
6565;BME280;3316;44.118;27.258;2024-03-23T01:04:21;101258.91;;;7.01;100.00
6565;BME280;3316;44.118;27.258;2024-03-23T01:06:47;101234.28;;;6.85;100.00
6565;BME280;3316;44.118;27.258;2024-03-23T01:09:12;101258.81;;;6.93;100.00
6565;BME280;3316;44.118;27.258;2024-03-23T01:11:38;101237.69;;;6.81;100.00
6565;BME280;3316;44.118;27.258;2024-03-23T01:14:05;101257.03;;;6.92;100.00
6565;BME280;3316;44.118;27.258;2024-03-23T01:16:30;101166.47;;;6.38;100.00
6565;BME280;3316;44.118;27.258;2024-03-23T01:18:55;101195.47;;;6.54;100.00
6565;BME280;3316;44.118;27.258;2024-03-23T01:21:21;101223.59;;;6.69;100.00
6565;BME280;3316;44.118;27.258;2024-03-23T01:23:46;101240.19;;;6.72;100.00
6565;BME280;3316;44.118;27.258;2024-03-23T01:26:12;101212.19;;;6.65;100.00
6565;BME280;3316;44.118;27.258;2024-03-23T01:28:37;101233.19;;;6.70;100.00
6565;BME280;3316;44.118;27.258;2024-03-23T01:31:03;101228.66;;;6.61;100.00
6565;BME280;3316;44.118;27.258;2024-03-23T01:33:28;101238.41;;;6.70;100.00
6565;BME280;3316;44.118;27.258;2024-03-23T01:35:54;101172.50;;;6.34;100.00
6565;BME280;3316;44.118;27.258;2024-03-23T01:38:19;101206.72;;;6.49;100.00
6565;BME280;3316;44.118;27.258;2024-03-23T01:40:44;101239.41;;;6.78;100.00
6565;BME280;3316;44.118;27.258;2024-03-23T01:43:10;101247.28;;;6.81;100.00
6565;BME280;3316;44.118;27.258;2024-03-23T01:45:35;101240.28;;;6.78;100.00
6565;BME280;3316;44.118;27.258;2024-03-23T01:48:02;101232.53;;;6.86;100.00
6565;BME280;3316;44.118;27.258;2024-03-23T01:50:28;101238.72;;;6.91;100.00
6565;BME280;3316;44.118;27.258;2024-03-23T01:52:58;101236.19;;;6.98;100.00
6565;BME280;3316;44.118;27.258;2024-03-23T01:55:24;101224.88;;;6.98;100.00
6565;BME280;3316;44.118;27.258;2024-03-23T01:57:50;101225.81;;;7.04;100.00
6565;BME280;3316;44.118;27.258;2024-03-23T02:00:16;101203.06;;;6.99;100.00
6565;BME280;3316;44.118;27.258;2024-03-23T02:02:45;101213.78;;;7.15;100.00
6565;BME280;3316;44.118;27.258;2024-03-23T02:05:11;101221.72;;;7.23;100.00
6565;BME280;3316;44.118;27.258;2024-03-23T02:07:41;101218.28;;;7.30;100.00
6565;BME280;3316;44.118;27.258;2024-03-23T02:10:09;101215.63;;;7.26;100.00
6565;BME280;3316;44.118;27.258;2024-03-23T02:12:39;101212.09;;;7.22;100.00
6565;BME280;3316;44.118;27.258;2024-03-23T02:15:04;101222.72;;;7.34;100.00
6565;BME280;3316;44.118;27.258;2024-03-23T02:17:32;101222.78;;;7.39;100.00
6565;BME280;3316;44.118;27.258;2024-03-23T02:19:58;101200.84;;;7.29;100.00
6565;BME280;3316;44.118;27.258;2024-03-23T02:22:23;101179.84;;;7.26;100.00
6565;BME280;3316;44.118;27.258;2024-03-23T02:24:49;101199.06;;;7.28;100.00
6565;BME280;3316;44.118;27.258;2024-03-23T02:27:14;101218.38;;;7.36;100.00
6565;BME280;3316;44.118;27.258;2024-03-23T02:29:40;101215.72;;;7.33;100.00
6565;BME280;3316;44.118;27.258;2024-03-23T02:32:05;101191.94;;;7.15;100.00
6565;BME280;3316;44.118;27.258;2024-03-23T02:34:31;101208.63;;;7.23;100.00
6565;BME280;3316;44.118;27.258;2024-03-23T02:36:57;101150.59;;;6.87;100.00
6565;BME280;3316;44.118;27.258;2024-03-23T02:39:22;101220.84;;;7.26;100.00
6565;BME280;3316;44.118;27.258;2024-03-23T02:41:48;101225.97;;;7.16;100.00
6565;BME280;3316;44.118;27.258;2024-03-23T02:44:13;101208.31;;;6.99;100.00
6565;BME280;3316;44.118;27.258;2024-03-23T02:46:39;101218.75;;;6.99;100.00
6565;BME280;3316;44.118;27.258;2024-03-23T02:49:05;101189.78;;;6.84;100.00
6565;BME280;3316;44.118;27.258;2024-03-23T02:51:30;101223.25;;;7.07;100.00
6565;BME280;3316;44.118;27.258;2024-03-23T02:53:56;101194.16;;;6.85;100.00
6565;BME280;3316;44.118;27.258;2024-03-23T02:56:21;101216.13;;;6.96;100.00
6565;BME280;3316;44.118;27.258;2024-03-23T02:58:47;101216.13;;;6.96;100.00
6565;BME280;3316;44.118;27.258;2024-03-23T03:01:12;101222.09;;;6.87;100.00
6565;BME280;3316;44.118;27.258;2024-03-23T03:03:38;101211.53;;;6.78;100.00
6565;BME280;3316;44.118;27.258;2024-03-23T03:06:03;101221.28;;;6.90;100.00
6565;BME280;3316;44.118;27.258;2024-03-23T03:08:29;101198.38;;;6.74;100.00
6565;BME280;3316;44.118;27.258;2024-03-23T03:10:54;101196.66;;;6.76;100.00
6565;BME280;3316;44.118;27.258;2024-03-23T03:13:20;101209.91;;;6.88;100.00
6565;BME280;3316;44.118;27.258;2024-03-23T03:15:45;101208.94;;;6.81;100.00
6565;BME280;3316;44.118;27.258;2024-03-23T03:18:11;101222.84;;;6.79;100.00
6565;BME280;3316;44.118;27.258;2024-03-23T03:20:40;101185.91;;;6.58;100.00
6565;BME280;3316;44.118;27.258;2024-03-23T03:23:06;101195.44;;;6.51;100.00
6565;BME280;3316;44.118;27.258;2024-03-23T03:25:32;101204.41;;;6.68;100.00
6565;BME280;3316;44.118;27.258;2024-03-23T03:27:58;101211.31;;;6.65;100.00
6565;BME280;3316;44.118;27.258;2024-03-23T03:30:23;101188.44;;;6.50;100.00
6565;BME280;3316;44.118;27.258;2024-03-23T03:32:49;101188.34;;;6.46;100.00
6565;BME280;3316;44.118;27.258;2024-03-23T03:35:15;101204.09;;;6.47;100.00
6565;BME280;3316;44.118;27.258;2024-03-23T03:37:40;101194.47;;;6.48;100.00
6565;BME280;3316;44.118;27.258;2024-03-23T03:40:06;101208.56;;;6.56;100.00
6565;BME280;3316;44.118;27.258;2024-03-23T03:42:34;101203.19;;;6.47;100.00
6565;BME280;3316;44.118;27.258;2024-03-23T03:44:59;101201.47;;;6.47;100.00
6565;BME280;3316;44.118;27.258;2024-03-23T03:47:25;101194.34;;;6.37;100.00
6565;BME280;3316;44.118;27.258;2024-03-23T03:49:50;101202.28;;;6.45;100.00
6565;BME280;3316;44.118;27.258;2024-03-23T03:52:16;101147.75;;;6.10;100.00
6565;BME280;3316;44.118;27.258;2024-03-23T03:54:41;101173.25;;;6.28;100.00
6565;BME280;3316;44.118;27.258;2024-03-23T03:57:06;101204.09;;;6.47;100.00
6565;BME280;3316;44.118;27.258;2024-03-23T03:59:32;101196.97;;;6.40;100.00
6565;BME280;3316;44.118;27.258;2024-03-23T04:01:57;101166.31;;;6.28;100.00
6565;BME280;3316;44.118;27.258;2024-03-23T04:04:23;101206.72;;;6.50;100.00
6565;BME280;3316;44.118;27.258;2024-03-23T04:06:48;101190.13;;;6.45;100.00
6565;BME280;3316;44.118;27.258;2024-03-23T04:09:14;101179.59;;;6.42;100.00
6565;BME280;3316;44.118;27.258;2024-03-23T04:11:40;101187.41;;;6.41;100.00
6565;BME280;3316;44.118;27.258;2024-03-23T04:14:05;101194.41;;;6.42;100.00
6565;BME280;3316;44.118;27.258;2024-03-23T04:16:34;101203.22;;;6.50;100.00
6565;BME280;3316;44.118;27.258;2024-03-23T04:19:00;101199.59;;;6.39;100.00
6565;BME280;3316;44.118;27.258;2024-03-23T04:21:25;101177.88;;;6.44;100.00
6565;BME280;3316;44.118;27.258;2024-03-23T04:23:50;101195.09;;;6.90;100.00
6565;BME280;3316;44.118;27.258;2024-03-23T04:26:16;101206.91;;;7.25;100.00
6565;BME280;3316;44.118;27.258;2024-03-23T04:28:41;101190.75;;;7.62;100.00
6565;BME280;3316;44.118;27.258;2024-03-23T04:31:08;101179.53;;;7.74;100.00
6565;BME280;3316;44.118;27.258;2024-03-23T04:33:33;101172.63;;;7.82;100.00
6565;BME280;3316;44.118;27.258;2024-03-23T04:35:59;101194.78;;;8.22;100.00
6565;BME280;3316;44.118;27.258;2024-03-23T04:38:24;101205.66;;;8.67;100.00
6565;BME280;3316;44.118;27.258;2024-03-23T04:40:56;101212.88;;;9.06;100.00
6565;BME280;3316;44.118;27.258;2024-03-23T04:43:22;101188.56;;;9.58;100.00
6565;BME280;3316;44.118;27.258;2024-03-23T04:45:48;101203.56;;;10.22;89.80
6565;BME280;3316;44.118;27.258;2024-03-23T04:48:13;101203.59;;;10.24;87.24
6565;BME280;3316;44.118;27.258;2024-03-23T04:50:39;101205.31;;;10.47;84.80
6565;BME280;3316;44.118;27.258;2024-03-23T04:53:05;101210.59;;;10.55;83.85
6565;BME280;3316;44.118;27.258;2024-03-23T04:55:31;101132.53;;;10.57;80.24
6565;BME280;3316;44.118;27.258;2024-03-23T04:57:56;101200.88;;;10.92;78.96
6565;BME280;3316;44.118;27.258;2024-03-23T05:00:22;101208.72;;;11.07;77.87
6565;BME280;3316;44.118;27.258;2024-03-23T05:02:48;101190.19;;;11.28;75.07
6565;BME280;3316;44.118;27.258;2024-03-23T05:05:14;101214.69;;;11.52;72.32
6565;BME280;3316;44.118;27.258;2024-03-23T05:07:39;101224.94;;;12.05;71.51
6565;BME280;3316;44.118;27.258;2024-03-23T05:10:07;101217.81;;;12.13;68.01
6565;BME280;3316;44.118;27.258;2024-03-23T05:12:35;101225.91;;;11.91;69.83
6565;BME280;3316;44.118;27.258;2024-03-23T05:15:01;101220.06;;;12.60;66.51
6565;BME280;3316;44.118;27.258;2024-03-23T05:17:26;101185.59;;;12.74;64.27
6565;BME280;3316;44.118;27.258;2024-03-23T05:19:52;101219.03;;;13.57;61.90
6565;BME280;3316;44.118;27.258;2024-03-23T05:22:17;101215.28;;;14.81;57.53
6565;BME280;3316;44.118;27.258;2024-03-23T05:24:45;101214.97;;;16.21;54.45
6565;BME280;3316;44.118;27.258;2024-03-23T05:27:10;101201.13;;;16.77;50.24
6565;BME280;3316;44.118;27.258;2024-03-23T05:29:35;101217.94;;;18.01;48.11
6565;BME280;3316;44.118;27.258;2024-03-23T05:32:01;101202.31;;;19.19;44.25
6565;BME280;3316;44.118;27.258;2024-03-23T05:34:26;101224.16;;;19.06;42.70
6565;BME280;3316;44.118;27.258;2024-03-23T05:36:53;101226.63;;;18.87;42.52
6565;BME280;3316;44.118;27.258;2024-03-23T05:39:19;101187.75;;;19.05;41.73
6565;BME280;3316;44.118;27.258;2024-03-23T05:41:47;101189.47;;;20.21;40.94
6565;BME280;3316;44.118;27.258;2024-03-23T05:44:12;101217.28;;;21.21;38.10
6565;BME280;3316;44.118;27.258;2024-03-23T05:46:38;101214.00;;;21.72;37.87
6565;BME280;3316;44.118;27.258;2024-03-23T05:49:03;101211.56;;;22.40;37.19
6565;BME280;3316;44.118;27.258;2024-03-23T05:51:29;101192.91;;;22.90;36.14
6565;BME280;3316;44.118;27.258;2024-03-23T05:53:54;101221.38;;;23.44;34.27
6565;BME280;3316;44.118;27.258;2024-03-23T05:56:20;101216.94;;;23.75;34.24
6565;BME280;3316;44.118;27.258;2024-03-23T05:58:45;101221.66;;;23.05;33.81
6565;BME280;3316;44.118;27.258;2024-03-23T06:01:11;101167.50;;;20.13;36.91
6565;BME280;3316;44.118;27.258;2024-03-23T06:03:38;101224.34;;;21.79;36.48
6565;BME280;3316;44.118;27.258;2024-03-23T06:06:03;101218.75;;;22.75;34.73
6565;BME280;3316;44.118;27.258;2024-03-23T06:08:29;101225.53;;;22.99;34.60
6565;BME280;3316;44.118;27.258;2024-03-23T06:10:55;101216.41;;;23.69;33.54
6565;BME280;3316;44.118;27.258;2024-03-23T06:13:20;101216.66;;;24.13;33.18
6565;BME280;3316;44.118;27.258;2024-03-23T06:15:50;101222.97;;;24.12;32.56
6565;BME280;3316;44.118;27.258;2024-03-23T06:18:15;101222.75;;;23.83;33.26
6565;BME280;3316;44.118;27.258;2024-03-23T06:20:40;101229.94;;;23.67;34.08
6565;BME280;3316;44.118;27.258;2024-03-23T06:23:06;101203.41;;;24.55;32.63
6565;BME280;3316;44.118;27.258;2024-03-23T06:25:31;101217.88;;;24.98;31.78
6565;BME280;3316;44.118;27.258;2024-03-23T06:27:57;101215.69;;;24.75;32.56
6565;BME280;3316;44.118;27.258;2024-03-23T06:30:27;101160.66;;;24.35;32.41
6565;BME280;3316;44.118;27.258;2024-03-23T06:32:53;101117.75;;;24.18;32.23
6565;BME280;3316;44.118;27.258;2024-03-23T06:35:18;101193.44;;;23.79;33.03
6565;BME280;3316;44.118;27.258;2024-03-23T06:37:44;101186.63;;;23.41;33.83
6565;BME280;3316;44.118;27.258;2024-03-23T06:40:09;101207.63;;;23.50;33.87
6565;BME280;3316;44.118;27.258;2024-03-23T06:42:38;101206.75;;;22.82;34.95
6565;BME280;3316;44.118;27.258;2024-03-23T06:45:04;101206.69;;;22.84;35.25
6565;BME280;3316;44.118;27.258;2024-03-23T06:47:32;101155.25;;;22.40;35.65
6565;BME280;3316;44.118;27.258;2024-03-23T06:49:59;101153.72;;;22.70;35.39
6565;BME280;3316;44.118;27.258;2024-03-23T06:52:27;101181.78;;;22.46;35.84
6565;BME280;3316;44.118;27.258;2024-03-23T06:54:53;101204.13;;;22.28;36.11
6565;BME280;3316;44.118;27.258;2024-03-23T06:57:18;101204.38;;;22.76;35.47
6565;BME280;3316;44.118;27.258;2024-03-23T06:59:44;101204.72;;;21.80;37.09
6565;BME280;3316;44.118;27.258;2024-03-23T07:02:09;101171.44;;;21.66;37.35
6565;BME280;3316;44.118;27.258;2024-03-23T07:04:36;101196.31;;;22.24;36.89
6565;BME280;3316;44.118;27.258;2024-03-23T07:07:02;101203.22;;;22.29;36.25
6565;BME280;3316;44.118;27.258;2024-03-23T07:09:28;101202.81;;;22.37;36.14
6565;BME280;3316;44.118;27.258;2024-03-23T07:11:55;101202.66;;;23.25;35.80
6565;BME280;3316;44.118;27.258;2024-03-23T07:14:22;101198.69;;;24.13;34.85
6565;BME280;3316;44.118;27.258;2024-03-23T07:16:48;101204.16;;;24.57;33.93
6565;BME280;3316;44.118;27.258;2024-03-23T07:19:15;101194.34;;;24.56;33.68
6565;BME280;3316;44.118;27.258;2024-03-23T07:21:42;101172.13;;;25.12;32.88
6565;BME280;3316;44.118;27.258;2024-03-23T07:24:07;101178.03;;;24.59;32.93
6565;BME280;3316;44.118;27.258;2024-03-23T07:26:33;101184.78;;;24.21;33.44
6565;BME280;3316;44.118;27.258;2024-03-23T07:28:58;101192.25;;;23.36;34.86
6565;BME280;3316;44.118;27.258;2024-03-23T07:31:24;101193.78;;;23.73;34.88
6565;BME280;3316;44.118;27.258;2024-03-23T07:33:50;101184.69;;;23.75;34.80
6565;BME280;3316;44.118;27.258;2024-03-23T07:36:15;101189.38;;;24.19;34.48
6565;BME280;3316;44.118;27.258;2024-03-23T07:38:42;101195.97;;;24.29;34.56
6565;BME280;3316;44.118;27.258;2024-03-23T07:41:18;101189.56;;;23.84;34.96
6565;BME280;3316;44.118;27.258;2024-03-23T07:43:45;101174.88;;;24.66;34.06
6565;BME280;3316;44.118;27.258;2024-03-23T07:46:11;101167.53;;;24.09;34.89
6565;BME280;3316;44.118;27.258;2024-03-23T07:48:37;101177.38;;;24.99;33.59
6565;BME280;3316;44.118;27.258;2024-03-23T07:51:08;101169.22;;;25.15;33.36
6565;BME280;3316;44.118;27.258;2024-03-23T07:53:34;101173.59;;;26.00;32.13
6565;BME280;3316;44.118;27.258;2024-03-23T07:56:03;101167.69;;;26.22;31.69
6565;BME280;3316;44.118;27.258;2024-03-23T07:58:29;101155.69;;;25.99;31.84
6565;BME280;3316;44.118;27.258;2024-03-23T08:00:55;101172.38;;;26.06;31.77
6565;BME280;3316;44.118;27.258;2024-03-23T08:03:21;101166.25;;;25.62;32.62
6565;BME280;3316;44.118;27.258;2024-03-23T08:05:47;101157.69;;;25.13;32.97
6565;BME280;3316;44.118;27.258;2024-03-23T08:08:13;101152.44;;;24.52;33.92
6565;BME280;3316;44.118;27.258;2024-03-23T08:10:51;101134.25;;;23.80;34.80
6565;BME280;3316;44.118;27.258;2024-03-23T08:13:18;101159.13;;;22.86;36.09
6565;BME280;3316;44.118;27.258;2024-03-23T08:15:43;101155.53;;;22.70;36.47
6565;BME280;3316;44.118;27.258;2024-03-23T08:18:12;101147.00;;;22.79;36.27
6565;BME280;3316;44.118;27.258;2024-03-23T08:20:37;101155.94;;;22.09;37.32
6565;BME280;3316;44.118;27.258;2024-03-23T08:23:04;101134.44;;;21.74;37.87
6565;BME280;3316;44.118;27.258;2024-03-23T08:25:34;101131.28;;;21.08;39.16
6565;BME280;3316;44.118;27.258;2024-03-23T08:27:59;101119.63;;;20.09;39.37
6565;BME280;3316;44.118;27.258;2024-03-23T08:30:25;101134.84;;;20.07;39.04
6565;BME280;3316;44.118;27.258;2024-03-23T08:32:50;101114.03;;;19.50;39.09
6565;BME280;3316;44.118;27.258;2024-03-23T08:35:16;101126.81;;;19.42;39.76
6565;BME280;3316;44.118;27.258;2024-03-23T08:37:41;101132.72;;;19.02;40.70
6565;BME280;3316;44.118;27.258;2024-03-23T08:40:07;101115.72;;;18.57;40.09
6565;BME280;3316;44.118;27.258;2024-03-23T08:42:34;101118.16;;;18.64;40.45
6565;BME280;3316;44.118;27.258;2024-03-23T08:44:59;101127.03;;;18.63;40.13
6565;BME280;3316;44.118;27.258;2024-03-23T08:47:24;101128.53;;;18.72;39.25
6565;BME280;3316;44.118;27.258;2024-03-23T08:49:50;101101.16;;;18.90;39.70
6565;BME280;3316;44.118;27.258;2024-03-23T08:52:16;101095.75;;;18.68;38.37
6565;BME280;3316;44.118;27.258;2024-03-23T08:54:41;101117.31;;;18.62;37.87
6565;BME280;3316;44.118;27.258;2024-03-23T08:57:08;101120.63;;;18.69;38.28
6565;BME280;3316;44.118;27.258;2024-03-23T08:59:34;101121.81;;;18.85;39.06
6565;BME280;3316;44.118;27.258;2024-03-23T09:02:00;101109.13;;;18.67;37.90
6565;BME280;3316;44.118;27.258;2024-03-23T09:04:25;101110.34;;;18.83;39.62
6565;BME280;3316;44.118;27.258;2024-03-23T09:06:51;101112.94;;;18.85;37.59
6565;BME280;3316;44.118;27.258;2024-03-23T09:09:17;101110.16;;;18.64;38.93
6565;BME280;3316;44.118;27.258;2024-03-23T09:11:42;101060.69;;;18.31;39.70
6565;BME280;3316;44.118;27.258;2024-03-23T09:14:09;101096.06;;;18.84;39.04
6565;BME280;3316;44.118;27.258;2024-03-23T09:16:34;101103.09;;;19.10;38.58
6565;BME280;3316;44.118;27.258;2024-03-23T09:19:00;101104.78;;;19.12;37.73
6565;BME280;3316;44.118;27.258;2024-03-23T09:21:26;101089.75;;;18.87;37.03
6565;BME280;3316;44.118;27.258;2024-03-23T09:23:52;101070.22;;;18.86;37.29
6565;BME280;3316;44.118;27.258;2024-03-23T09:26:17;101097.06;;;19.05;37.86
6565;BME280;3316;44.118;27.258;2024-03-23T09:28:43;101093.22;;;19.13;37.90
6565;BME280;3316;44.118;27.258;2024-03-23T09:31:08;101084.56;;;18.59;37.12
6565;BME280;3316;44.118;27.258;2024-03-23T09:33:36;101082.47;;;18.67;38.49
6565;BME280;3316;44.118;27.258;2024-03-23T09:36:05;101083.44;;;18.40;39.81
6565;BME280;3316;44.118;27.258;2024-03-23T09:38:30;101050.84;;;18.33;39.26
6565;BME280;3316;44.118;27.258;2024-03-23T09:40:57;101035.91;;;18.28;39.78
6565;BME280;3316;44.118;27.258;2024-03-23T09:43:23;101063.44;;;18.53;40.15
6565;BME280;3316;44.118;27.258;2024-03-23T09:45:49;101064.25;;;18.80;40.49
6565;BME280;3316;44.118;27.258;2024-03-23T09:48:15;101034.50;;;18.90;39.94
6565;BME280;3316;44.118;27.258;2024-03-23T09:50:43;101058.22;;;19.21;39.01
6565;BME280;3316;44.118;27.258;2024-03-23T09:53:12;101051.63;;;19.29;38.61
6565;BME280;3316;44.118;27.258;2024-03-23T09:55:39;101043.03;;;19.23;38.29
6565;BME280;3316;44.118;27.258;2024-03-23T09:58:05;101052.25;;;19.37;37.21
6565;BME280;3316;44.118;27.258;2024-03-23T10:00:31;101047.78;;;19.38;37.92
6565;BME280;3316;44.118;27.258;2024-03-23T10:02:58;101046.16;;;19.34;38.37
6565;BME280;3316;44.118;27.258;2024-03-23T10:05:27;101025.56;;;19.14;39.04
6565;BME280;3316;44.118;27.258;2024-03-23T10:07:53;100967.50;;;18.99;38.98
6565;BME280;3316;44.118;27.258;2024-03-23T10:10:18;101028.63;;;19.04;38.38
6565;BME280;3316;44.118;27.258;2024-03-23T10:12:48;101041.31;;;18.99;39.29
6565;BME280;3316;44.118;27.258;2024-03-23T10:15:25;101027.00;;;19.46;39.16
6565;BME280;3316;44.118;27.258;2024-03-23T10:17:51;101028.22;;;19.37;38.55
6565;BME280;3316;44.118;27.258;2024-03-23T10:20:23;101008.81;;;19.34;38.16
6565;BME280;3316;44.118;27.258;2024-03-23T10:22:49;101022.09;;;19.57;37.92
6565;BME280;3316;44.118;27.258;2024-03-23T10:25:16;100975.00;;;18.90;39.22
6565;BME280;3316;44.118;27.258;2024-03-23T10:27:42;101008.94;;;19.08;38.50
6565;BME280;3316;44.118;27.258;2024-03-23T10:30:11;100951.88;;;19.12;38.54
6565;BME280;3316;44.118;27.258;2024-03-23T10:32:38;100991.97;;;19.32;39.65
6565;BME280;3316;44.118;27.258;2024-03-23T10:35:20;100996.84;;;19.44;38.75
6565;BME280;3316;44.118;27.258;2024-03-23T10:37:48;100970.69;;;19.30;38.46
6565;BME280;3316;44.118;27.258;2024-03-23T10:40:17;100992.53;;;19.62;39.51
6565;BME280;3316;44.118;27.258;2024-03-23T10:42:46;100988.94;;;19.63;38.10
6565;BME280;3316;44.118;27.258;2024-03-23T10:45:12;100928.97;;;19.28;39.15
6565;BME280;3316;44.118;27.258;2024-03-23T10:47:37;100974.78;;;19.39;39.03
6565;BME280;3316;44.118;27.258;2024-03-23T10:50:04;100975.28;;;19.48;38.59
6565;BME280;3316;44.118;27.258;2024-03-23T10:52:33;100977.66;;;19.56;38.45
6565;BME280;3316;44.118;27.258;2024-03-23T10:55:02;100938.50;;;19.13;38.36
6565;BME280;3316;44.118;27.258;2024-03-23T10:57:35;100957.34;;;19.52;38.61
6565;BME280;3316;44.118;27.258;2024-03-23T11:00:04;100951.25;;;19.27;38.40
6565;BME280;3316;44.118;27.258;2024-03-23T11:02:30;100943.94;;;19.32;37.91
6565;BME280;3316;44.118;27.258;2024-03-23T11:04:56;100947.00;;;19.65;38.27
6565;BME280;3316;44.118;27.258;2024-03-23T11:09:50;100941.91;;;19.60;36.71
6565;BME280;3316;44.118;27.258;2024-03-23T11:12:25;100930.53;;;19.55;36.75
6565;BME280;3316;44.118;27.258;2024-03-23T11:14:55;100911.09;;;19.51;37.45
6565;BME280;3316;44.118;27.258;2024-03-23T11:17:23;100918.06;;;19.76;37.35
6565;BME280;3316;44.118;27.258;2024-03-23T11:19:59;100928.88;;;19.93;37.35
6565;BME280;3316;44.118;27.258;2024-03-23T11:25:12;100924.78;;;20.04;37.50
6565;BME280;3316;44.118;27.258;2024-03-23T11:27:38;100908.88;;;20.01;37.35
6565;BME280;3316;44.118;27.258;2024-03-23T11:30:16;100912.38;;;20.23;37.82
6565;BME280;3316;44.118;27.258;2024-03-23T11:32:46;100901.50;;;20.28;37.53
6565;BME280;3316;44.118;27.258;2024-03-23T11:35:34;100878.75;;;20.18;36.60
6565;BME280;3316;44.118;27.258;2024-03-23T11:40:36;100873.25;;;20.22;36.61
6565;BME280;3316;44.118;27.258;2024-03-23T11:43:06;100856.94;;;20.08;36.03
6565;BME280;3316;44.118;27.258;2024-03-23T11:45:39;100878.94;;;20.33;36.04
6565;BME280;3316;44.118;27.258;2024-03-23T11:48:13;100850.56;;;20.31;35.52
6565;BME280;3316;44.118;27.258;2024-03-23T11:50:40;100859.72;;;20.25;36.11
6565;BME280;3316;44.118;27.258;2024-03-23T11:53:14;100853.16;;;20.32;36.23
6565;BME280;3316;44.118;27.258;2024-03-23T11:55:52;100859.25;;;20.36;36.00
6565;BME280;3316;44.118;27.258;2024-03-23T11:58:20;100838.78;;;20.35;36.33
6565;BME280;3316;44.118;27.258;2024-03-23T12:01:00;100850.56;;;20.31;36.74
6565;BME280;3316;44.118;27.258;2024-03-23T12:03:31;100812.25;;;20.12;35.68
6565;BME280;3316;44.118;27.258;2024-03-23T12:05:59;100834.16;;;20.20;36.12
6565;BME280;3316;44.118;27.258;2024-03-23T12:08:34;100841.81;;;20.27;37.05
6565;BME280;3316;44.118;27.258;2024-03-23T12:11:11;100810.13;;;20.20;36.32
6565;BME280;3316;44.118;27.258;2024-03-23T12:13:37;100826.78;;;20.25;36.16
6565;BME280;3316;44.118;27.258;2024-03-23T12:16:09;100792.03;;;20.06;36.86
6565;BME280;3316;44.118;27.258;2024-03-23T12:18:36;100799.94;;;20.28;36.83
6565;BME280;3316;44.118;27.258;2024-03-23T12:21:01;100785.19;;;20.01;37.29
6565;BME280;3316;44.118;27.258;2024-03-23T12:23:27;100807.81;;;19.92;37.09
6565;BME280;3316;44.118;27.258;2024-03-23T12:25:52;100805.47;;;20.05;37.62
6565;BME280;3316;44.118;27.258;2024-03-23T12:28:17;100802.47;;;19.92;37.08
6565;BME280;3316;44.118;27.258;2024-03-23T12:30:43;100804.03;;;20.16;36.90
6565;BME280;3316;44.118;27.258;2024-03-23T12:33:09;100789.19;;;20.09;37.26
6565;BME280;3316;44.118;27.258;2024-03-23T12:35:34;100787.50;;;20.08;37.38
6565;BME280;3316;44.118;27.258;2024-03-23T12:38:00;100784.56;;;20.13;37.90
6565;BME280;3316;44.118;27.258;2024-03-23T12:40:26;100756.78;;;19.98;37.51
6565;BME280;3316;44.118;27.258;2024-03-23T12:42:53;100775.56;;;20.15;37.02
6565;BME280;3316;44.118;27.258;2024-03-23T12:45:18;100781.84;;;20.14;37.60
6565;BME280;3316;44.118;27.258;2024-03-23T12:47:44;100774.44;;;20.21;38.71
6565;BME280;3316;44.118;27.258;2024-03-23T12:50:09;100765.13;;;20.11;37.92
6565;BME280;3316;44.118;27.258;2024-03-23T12:52:35;100744.81;;;19.88;37.08
6565;BME280;3316;44.118;27.258;2024-03-23T12:55:01;100765.41;;;20.05;37.82
6565;BME280;3316;44.118;27.258;2024-03-23T12:57:26;100765.13;;;20.11;37.89
6565;BME280;3316;44.118;27.258;2024-03-23T12:59:52;100751.38;;;20.00;38.12
6565;BME280;3316;44.118;27.258;2024-03-23T13:02:21;100731.97;;;19.96;38.40
6565;BME280;3316;44.118;27.258;2024-03-23T13:04:49;100753.47;;;20.12;37.40
6565;BME280;3316;44.118;27.258;2024-03-23T13:07:16;100746.16;;;20.15;37.53
6565;BME280;3316;44.118;27.258;2024-03-23T13:09:41;100741.44;;;20.22;36.06
6565;BME280;3316;44.118;27.258;2024-03-23T13:12:07;100739.91;;;20.16;35.61
6565;BME280;3316;44.118;27.258;2024-03-23T13:14:32;100681.00;;;19.82;36.25
6565;BME280;3316;44.118;27.258;2024-03-23T13:16:58;100738.91;;;20.19;35.31
6565;BME280;3316;44.118;27.258;2024-03-23T13:19:24;100727.03;;;20.06;35.94
6565;BME280;3316;44.118;27.258;2024-03-23T13:21:54;100709.44;;;19.83;37.03
6565;BME280;3316;44.118;27.258;2024-03-23T13:24:23;100724.44;;;19.67;36.08
6565;BME280;3316;44.118;27.258;2024-03-23T13:26:50;100724.28;;;19.70;37.01
6565;BME280;3316;44.118;27.258;2024-03-23T13:29:16;100718.38;;;19.82;36.69
6565;BME280;3316;44.118;27.258;2024-03-23T13:31:41;100717.81;;;19.76;36.23
6565;BME280;3316;44.118;27.258;2024-03-23T13:34:07;100718.03;;;19.71;35.71
6565;BME280;3316;44.118;27.258;2024-03-23T13:36:32;100718.94;;;19.70;35.65
6565;BME280;3316;44.118;27.258;2024-03-23T13:38:58;100710.19;;;19.28;36.04
6565;BME280;3316;44.118;27.258;2024-03-23T13:41:24;100716.34;;;19.30;35.88
6565;BME280;3316;44.118;27.258;2024-03-23T13:43:49;100684.66;;;19.22;35.02
6565;BME280;3316;44.118;27.258;2024-03-23T13:46:14;100716.22;;;19.33;34.09
6565;BME280;3316;44.118;27.258;2024-03-23T13:48:40;100715.81;;;19.42;35.43
6565;BME280;3316;44.118;27.258;2024-03-23T13:51:07;100702.72;;;19.56;35.73
6565;BME280;3316;44.118;27.258;2024-03-23T13:53:33;100654.00;;;19.32;35.50
6565;BME280;3316;44.118;27.258;2024-03-23T13:55:58;100675.75;;;19.62;35.16
6565;BME280;3316;44.118;27.258;2024-03-23T13:58:24;100693.94;;;19.91;35.50